EST,Max TemperatureF,Mean TemperatureF,Min TemperatureF,Max Dew PointF,MeanDew PointF,Min DewpointF,Max Humidity, Mean Humidity, Min Humidity, Max Sea Level PressureIn, Mean Sea Level PressureIn, Min Sea Level PressureIn, Max VisibilityMiles, Mean VisibilityMiles, Min VisibilityMiles, Max Wind SpeedMPH, Mean Wind SpeedMPH, Max Gust SpeedMPH,PrecipitationIn, CloudCover, Events, WindDirDegrees
2011-11-1,64,48,31,38,34,28,92,64,36,30.24,30.17,30.11,10,9,6,17,7,23,0.00,0,,165
2011-11-2,67,58,49,41,37,33,64,51,37,30.15,30.08,29.99,10,10,10,24,10,30,0.00,0,,189
2011-11-3,51,47,42,46,42,34,93,79,65,30.17,30.02,29.97,10,8,5,20,10,29,T,6,,24
2011-11-4,55,42,28,34,30,25,92,65,38,30.34,30.28,30.18,10,10,10,13,5,16,0.00,0,,50
2011-11-5,57,44,30,30,28,25,78,55,32,30.33,30.26,30.16,10,10,10,16,8,18,0.00,0,,129
2011-11-6,64,53,42,44,38,29,71,60,48,30.16,30.13,30.08,10,10,10,25,14,37,0.00,3,,176
2011-11-7,58,56,53,52,49,42,93,75,57,30.25,30.21,30.17,10,6,1,16,5,23,0.10,8,Rain,189
2011-11-8,62,58,53,57,54,51,93,80,67,30.17,30.02,29.94,10,6,2,18,7,23,0.23,8,Rain,171
2011-11-9,61,50,39,56,48,33,93,82,71,29.97,29.76,29.59,10,8,1,38,18,52,0.27,8,Rain,182
2011-11-10,40,36,32,31,30,27,92,78,64,30.00,29.96,29.93,10,7,1,23,12,29,0.11,6,Snow,237
2011-11-11,42,37,32,29,27,23,82,67,51,30.05,29.96,29.81,10,10,10,18,10,23,0.00,4,,205
2011-11-12,60,48,36,40,33,26,82,60,37,29.88,29.81,29.71,10,10,10,26,15,35,0.00,2,,196
2011-11-13,68,59,50,52,45,30,67,52,36,29.70,29.55,29.42,10,10,10,32,19,40,0.00,6,,200
2011-11-14,51,47,42,45,40,30,100,73,46,29.75,29.65,29.56,10,7,2,13,6,15,0.53,4,Rain-Thunderstorm,187
2011-11-15,61,48,34,46,42,33,100,76,51,29.82,29.79,29.74,10,6,0,23,7,29,0.00,1,Fog,197
2011-11-16,49,40,31,45,29,17,96,72,47,30.14,29.98,29.83,10,8,0,21,10,26,0.00,0,Fog,296
2011-11-17,36,31,25,18,16,13,63,53,43,30.27,30.18,30.09,10,10,10,23,12,29,0.00,3,,244
2011-11-18,50,37,24,19,16,14,68,47,26,30.27,30.14,29.98,10,10,10,29,15,37,0.00,2,,188
2011-11-19,58,51,44,49,35,19,77,56,34,30.02,29.91,29.83,10,10,10,28,17,36,0.00,8,,191
2011-11-20,59,49,38,52,37,29,82,73,64,30.32,30.16,29.87,10,10,8,25,12,31,0.00,7,,338
2011-11-21,47,40,33,36,32,29,85,75,65,30.35,30.29,30.22,10,10,8,13,6,18,T,3,Rain,84
2011-11-22,42,39,36,39,36,32,92,86,79,30.23,29.95,29.78,9,6,2,20,11,28,1.15,7,Rain,48
2011-11-23,48,39,30,39,35,28,92,84,76,30.27,30.17,29.97,10,7,2,16,5,21,0.00,2,Fog,252
2011-11-24,47,41,34,40,38,34,100,88,76,30.28,30.22,30.11,10,6,0,21,13,26,0.00,5,Fog,204
2011-11-25,58,49,39,43,39,36,92,75,57,30.14,30.03,29.94,10,10,8,26,15,36,0.00,0,,196
2011-11-26,61,56,51,54,47,38,93,74,54,29.98,29.89,29.77,10,10,6,22,13,28,0.12,6,Rain,186
2011-11-27,57,47,36,54,40,32,93,87,80,30.10,29.93,29.74,10,9,4,23,13,28,0.44,8,Rain,329
2011-11-28,38,34,30,32,29,26,89,80,70,30.16,30.07,29.92,10,10,8,16,10,21,0.04,6,Rain,23
2011-11-29,39,37,34,34,31,26,100,82,64,29.94,29.83,29.77,10,9,5,29,17,36,0.47,8,Rain-Snow,360
2011-11-30,42,35,28,28,25,20,70,61,51,30.20,30.04,29.87,10,10,10,26,10,37,0.00,3,,301